createdAt,value
2023-04-08T00:02:15.906Z,16.23
2023-04-08T00:04:42.912Z,14.13
2023-04-08T00:07:09.555Z,18.33
2023-04-08T00:09:36.337Z,21.60
2023-04-08T00:12:03.040Z,29.93
2023-04-08T00:14:29.587Z,21.03
2023-04-08T00:16:56.296Z,26.90
2023-04-08T00:19:22.848Z,22.90
2023-04-08T00:21:49.365Z,24.13
2023-04-08T00:24:16.610Z,26.27
2023-04-08T00:26:43.355Z,25.33
2023-04-08T00:29:09.890Z,22.83
2023-04-08T00:31:36.697Z,23.10
2023-04-08T00:34:03.220Z,22.73
2023-04-08T00:36:29.848Z,23.30
2023-04-08T00:38:56.777Z,22.80
2023-04-08T00:41:23.431Z,23.67
2023-04-08T00:43:49.925Z,21.60
2023-04-08T00:46:16.730Z,22.37
2023-04-08T00:48:43.389Z,27.40
2023-04-08T00:51:09.954Z,25.50
2023-04-08T00:53:36.583Z,24.53
2023-04-08T00:56:03.532Z,23.70
2023-04-08T00:58:30.395Z,24.13
2023-04-08T01:01:11.412Z,22.43
2023-04-08T01:03:47.398Z,26.27
2023-04-08T01:06:23.792Z,23.70
2023-04-08T01:08:51.838Z,24.67
2023-04-08T01:11:18.840Z,20.07
2023-04-08T01:13:46.637Z,23.83
2023-04-08T01:16:14.774Z,23.77
2023-04-08T01:18:42.449Z,21.47
2023-04-08T01:21:09.703Z,25.33
2023-04-08T01:23:47.007Z,24.37
2023-04-08T01:26:22.249Z,25.90
2023-04-08T01:28:51.679Z,21.07
2023-04-08T01:31:18.716Z,27.23
2023-04-08T01:33:46.112Z,24.17
2023-04-08T01:36:13.236Z,22.83
2023-04-08T01:38:40.614Z,22.00
2023-04-08T01:41:09.467Z,20.87
2023-04-08T01:43:36.341Z,22.97
2023-04-08T01:46:03.005Z,19.70
2023-04-08T01:48:30.107Z,24.47
2023-04-08T01:50:57.248Z,19.90
2023-04-08T01:53:24.055Z,22.10
2023-04-08T01:55:55.725Z,22.20
2023-04-08T01:58:22.842Z,21.90
2023-04-08T02:00:50.041Z,21.47
2023-04-08T02:03:19.560Z,22.10
2023-04-08T02:05:46.360Z,20.27
2023-04-08T02:08:13.146Z,25.30
2023-04-08T02:10:40.756Z,22.80
2023-04-08T02:13:07.906Z,18.60
2023-04-08T02:15:35.716Z,19.90
2023-04-08T02:18:16.153Z,20.07
2023-04-08T02:20:51.433Z,19.70
2023-04-08T02:23:24.069Z,18.73
2023-04-08T02:25:53.251Z,16.90
2023-04-08T02:28:19.856Z,18.90
2023-04-08T02:30:51.490Z,19.00
2023-04-08T02:33:19.908Z,18.73
2023-04-08T02:35:48.027Z,18.00
2023-04-08T02:38:14.669Z,21.37
2023-04-08T02:40:41.919Z,19.13
2023-04-08T02:43:08.408Z,18.97
2023-04-08T02:45:42.831Z,18.80
2023-04-08T02:48:10.196Z,19.53
2023-04-08T02:50:37.340Z,32.83
2023-04-08T02:53:04.017Z,20.03
2023-04-08T02:55:30.610Z,24.00
2023-04-08T02:57:57.160Z,20.43
2023-04-08T03:00:23.738Z,18.90
2023-04-08T03:02:50.561Z,15.90
2023-04-08T03:05:17.537Z,18.10
2023-04-08T03:07:44.654Z,18.43
2023-04-08T03:10:12.177Z,18.70
2023-04-08T03:12:38.813Z,15.73
2023-04-08T03:15:06.207Z,17.90
2023-04-08T03:17:34.646Z,17.30
2023-04-08T03:20:04.077Z,19.67
2023-04-08T03:22:31.030Z,18.47
2023-04-08T03:24:57.935Z,21.73
2023-04-08T03:27:24.481Z,21.40
2023-04-08T03:29:51.085Z,18.60
2023-04-08T03:32:18.049Z,21.83
2023-04-08T03:34:44.599Z,21.60
2023-04-08T03:37:11.395Z,20.37
2023-04-08T03:39:38.456Z,21.17
2023-04-08T03:42:05.005Z,28.37
2023-04-08T03:44:31.566Z,21.30
2023-04-08T03:46:58.319Z,24.80
2023-04-08T03:49:24.818Z,22.97
2023-04-08T03:51:51.494Z,22.73
2023-04-08T03:54:18.138Z,27.27
2023-04-08T03:56:44.708Z,22.73
2023-04-08T03:59:11.280Z,19.87
2023-04-08T04:01:38.281Z,18.07
2023-04-08T04:04:05.752Z,17.60
2023-04-08T04:06:32.465Z,15.80
2023-04-08T04:08:58.993Z,14.73
2023-04-08T04:11:26.411Z,14.37
2023-04-08T04:13:52.993Z,15.70
2023-04-08T04:16:20.208Z,17.87
2023-04-08T04:18:46.795Z,15.20
2023-04-08T04:21:13.323Z,17.37
2023-04-08T04:23:39.990Z,16.37
2023-04-08T04:26:10.094Z,15.10
2023-04-08T04:28:36.970Z,15.83
2023-04-08T04:31:03.746Z,15.80
2023-04-08T04:33:31.058Z,15.43
2023-04-08T04:35:57.615Z,15.80
2023-04-08T04:38:24.359Z,15.07
2023-04-08T04:40:51.218Z,15.77
2023-04-08T04:43:17.743Z,15.77
2023-04-08T04:45:45.051Z,15.67
2023-04-08T04:48:11.627Z,14.43
2023-04-08T04:50:38.426Z,14.70
2023-04-08T04:53:05.018Z,14.70
2023-04-08T04:55:31.540Z,14.53
2023-04-08T04:57:58.033Z,16.40
2023-04-08T05:00:24.548Z,15.03
2023-04-08T05:02:51.725Z,13.53
2023-04-08T05:05:18.484Z,13.53
2023-04-08T05:07:45.098Z,13.43
2023-04-08T05:10:11.945Z,13.30
2023-04-08T05:12:38.743Z,14.10
2023-04-08T05:15:06.561Z,14.00
2023-04-08T05:17:33.106Z,14.27
2023-04-08T05:19:59.758Z,13.80
2023-04-08T05:22:26.500Z,13.80
2023-04-08T05:24:53.056Z,14.07
2023-04-08T05:27:21.594Z,14.83
2023-04-08T05:29:48.152Z,13.47
2023-04-08T05:32:16.695Z,13.33
2023-04-08T05:34:43.702Z,12.23
2023-04-08T05:37:10.418Z,12.87
2023-04-08T05:39:37.029Z,13.60
2023-04-08T05:42:03.720Z,12.70
2023-04-08T05:44:30.756Z,12.63
2023-04-08T05:46:58.218Z,12.77
2023-04-08T05:49:24.836Z,13.17
2023-04-08T05:51:51.471Z,14.20
2023-04-08T05:54:17.997Z,13.63
2023-04-08T05:56:46.320Z,12.40
2023-04-08T05:59:12.947Z,12.13
2023-04-08T06:01:39.512Z,13.63
2023-04-08T06:04:06.315Z,13.17
2023-04-08T06:06:33.293Z,14.10
2023-04-08T06:08:59.928Z,12.73
2023-04-08T06:11:26.520Z,14.53
2023-04-08T06:13:53.288Z,16.13
2023-04-08T06:16:21.219Z,14.20
2023-04-08T06:18:49.115Z,14.83
2023-04-08T06:21:16.580Z,14.53
2023-04-08T06:23:43.108Z,14.40
2023-04-08T06:26:09.936Z,13.87
2023-04-08T06:28:36.759Z,15.07
2023-04-08T06:31:03.594Z,15.90
2023-04-08T06:33:30.478Z,18.87
2023-04-08T06:36:04.419Z,16.50
2023-04-08T06:38:32.088Z,15.17
2023-04-08T06:41:06.401Z,16.03
2023-04-08T06:43:33.788Z,15.07
2023-04-08T06:46:00.567Z,16.00
2023-04-08T06:48:33.274Z,14.40
2023-04-08T06:51:01.437Z,14.17
2023-04-08T06:53:32.785Z,14.80
2023-04-08T06:55:59.969Z,13.80
2023-04-08T06:58:27.260Z,12.90
2023-04-08T07:00:56.249Z,14.30
2023-04-08T07:03:23.370Z,12.80
2023-04-08T07:05:50.052Z,13.77
2023-04-08T07:08:16.637Z,13.27
2023-04-08T07:10:43.411Z,14.73
2023-04-08T07:13:10.491Z,12.63
2023-04-08T07:15:39.912Z,12.73
2023-04-08T07:18:06.496Z,14.63
2023-04-08T07:20:35.856Z,14.13
2023-04-08T07:23:02.373Z,14.83
2023-04-08T07:25:28.917Z,14.67
2023-04-08T07:27:56.217Z,15.37
2023-04-08T07:30:22.755Z,14.20
2023-04-08T07:32:49.326Z,14.20
2023-04-08T07:35:19.139Z,15.37
2023-04-08T07:37:46.060Z,15.50
2023-04-08T07:40:12.779Z,15.50
2023-04-08T07:42:40.820Z,14.67
2023-04-08T07:45:08.250Z,15.03
2023-04-08T07:47:34.895Z,14.63
2023-04-08T07:50:01.588Z,15.50
2023-04-08T07:52:28.239Z,15.83
2023-04-08T07:54:55.001Z,15.17
2023-04-08T07:57:21.946Z,15.10
2023-04-08T07:59:48.838Z,18.00
2023-04-08T08:02:15.583Z,16.70
2023-04-08T08:04:42.391Z,16.07
2023-04-08T08:07:09.215Z,15.60
2023-04-08T08:09:35.868Z,16.60
2023-04-08T08:12:02.889Z,16.17
2023-04-08T08:14:29.441Z,16.77
2023-04-08T08:16:56.680Z,17.10
2023-04-08T08:19:23.219Z,16.20
2023-04-08T08:21:49.738Z,16.20
2023-04-08T08:24:17.377Z,15.30
2023-04-08T08:26:45.548Z,15.50
2023-04-08T08:29:12.052Z,14.10
2023-04-08T08:31:38.592Z,13.53
2023-04-08T08:34:05.310Z,15.10
2023-04-08T08:36:33.496Z,14.70
2023-04-08T08:39:01.957Z,14.30
2023-04-08T08:41:33.463Z,14.53
2023-04-08T08:44:00.651Z,13.90
2023-04-08T08:46:27.566Z,15.50
2023-04-08T08:48:54.293Z,12.93
2023-04-08T08:51:21.221Z,14.80
2023-04-08T08:53:47.861Z,13.87
2023-04-08T08:56:18.268Z,12.40
2023-04-08T08:58:45.699Z,13.63
2023-04-08T09:01:32.239Z,12.90
2023-04-08T09:04:12.674Z,12.93
2023-04-08T09:06:39.899Z,13.50
2023-04-08T09:09:10.226Z,12.50
2023-04-08T09:11:42.407Z,13.10
2023-04-08T09:14:24.769Z,12.67
2023-04-08T09:16:52.452Z,11.77
2023-04-08T09:19:19.406Z,11.70
2023-04-08T09:22:04.844Z,12.30
2023-04-08T09:24:31.943Z,12.80
2023-04-08T09:26:58.830Z,12.40
2023-04-08T09:29:32.071Z,12.63
2023-04-08T09:32:01.629Z,12.90
2023-04-08T09:34:29.532Z,13.20
2023-04-08T09:36:56.787Z,13.83
2023-04-08T09:39:23.704Z,13.20
2023-04-08T09:41:51.608Z,13.20
2023-04-08T09:44:20.922Z,12.03
2023-04-08T09:46:56.978Z,12.67
2023-04-08T09:49:27.456Z,13.00
2023-04-08T09:52:18.982Z,13.23
2023-04-08T09:54:57.712Z,12.50
2023-04-08T09:57:53.188Z,12.80
2023-04-08T10:00:22.181Z,11.87
2023-04-08T10:03:12.723Z,11.63
2023-04-08T10:05:42.314Z,13.80
2023-04-08T10:08:08.981Z,12.80
2023-04-08T10:10:37.154Z,11.83
2023-04-08T10:13:04.599Z,13.97
2023-04-08T10:15:32.979Z,12.70
2023-04-08T10:18:05.674Z,11.67
2023-04-08T10:20:38.448Z,12.33
2023-04-08T10:23:13.265Z,11.47
2023-04-08T10:25:43.160Z,10.93
2023-04-08T10:28:17.792Z,11.67
2023-04-08T10:30:47.454Z,10.77
2023-04-08T10:33:16.900Z,11.90
2023-04-08T10:35:48.478Z,11.10
2023-04-08T10:38:16.143Z,10.90
2023-04-08T10:40:44.230Z,9.87
2023-04-08T10:43:12.018Z,11.47
2023-04-08T10:45:39.417Z,11.23
2023-04-08T10:48:24.521Z,10.60
2023-04-08T10:50:59.554Z,11.40
2023-04-08T10:53:34.942Z,11.43
2023-04-08T10:56:17.801Z,11.20
2023-04-08T10:58:56.336Z,11.70
2023-04-08T11:01:23.233Z,11.60
2023-04-08T11:03:50.484Z,10.83
2023-04-08T11:06:17.904Z,12.27
2023-04-08T11:08:44.862Z,12.73
2023-04-08T11:11:12.056Z,12.43
2023-04-08T11:13:52.086Z,15.60
2023-04-08T11:16:21.454Z,11.00
2023-04-08T11:18:48.467Z,11.60
2023-04-08T11:21:15.482Z,11.53
2023-04-08T11:23:42.585Z,11.63
2023-04-08T11:26:09.282Z,11.80
2023-04-08T11:28:35.847Z,12.57
2023-04-08T11:31:04.272Z,11.10
2023-04-08T11:33:31.801Z,11.50
2023-04-08T11:36:01.764Z,11.57
2023-04-08T11:38:28.525Z,11.20
2023-04-08T11:40:56.139Z,12.33
2023-04-08T11:43:23.405Z,9.70
2023-04-08T11:45:50.368Z,10.87
2023-04-08T11:48:17.393Z,11.00
2023-04-08T11:50:45.110Z,11.40
2023-04-08T11:53:22.332Z,12.43
2023-04-08T11:55:49.175Z,12.30
2023-04-08T11:58:15.962Z,11.57
2023-04-08T12:00:42.811Z,12.97
2023-04-08T12:03:10.576Z,12.73
2023-04-08T12:05:37.465Z,13.70
2023-04-08T12:08:04.296Z,14.10
2023-04-08T12:10:31.241Z,13.33
2023-04-08T12:12:57.833Z,13.97
2023-04-08T12:15:24.377Z,12.93
2023-04-08T12:17:51.042Z,15.30
2023-04-08T12:20:18.688Z,14.37
2023-04-08T12:22:45.542Z,14.17
2023-04-08T12:25:12.181Z,15.90
2023-04-08T12:27:38.728Z,14.30
2023-04-08T12:30:05.815Z,15.40
2023-04-08T12:32:33.610Z,15.80
2023-04-08T12:35:00.431Z,15.20
2023-04-08T12:37:27.623Z,14.17
2023-04-08T12:39:54.237Z,15.20
2023-04-08T12:42:20.821Z,15.60
2023-04-08T12:44:47.331Z,15.27
2023-04-08T12:47:13.908Z,16.20
2023-04-08T12:52:10.076Z,17.23
2023-04-08T12:54:36.942Z,16.87
2023-04-08T12:57:04.597Z,16.93
2023-04-08T12:59:32.158Z,15.50
2023-04-08T13:01:59.369Z,16.10
2023-04-08T13:04:25.966Z,16.30
2023-04-08T13:06:52.782Z,15.83
2023-04-08T13:09:19.305Z,15.83
2023-04-08T13:11:45.856Z,17.17
2023-04-08T13:14:13.718Z,14.27
2023-04-08T13:16:40.540Z,15.07
2023-04-08T13:19:07.184Z,13.90
2023-04-08T13:21:33.991Z,14.57
2023-04-08T13:24:00.779Z,15.73
2023-04-08T13:26:27.372Z,15.53
2023-04-08T13:28:57.381Z,14.87
2023-04-08T13:31:25.319Z,15.90
2023-04-08T13:33:52.314Z,15.40
2023-04-08T13:36:19.948Z,13.93
2023-04-08T13:38:46.550Z,14.97
2023-04-08T13:41:13.057Z,13.90
2023-04-08T13:43:39.558Z,14.77
2023-04-08T13:46:06.321Z,14.70
2023-04-08T13:48:32.913Z,14.77
2023-04-08T13:50:59.468Z,14.03
2023-04-08T13:53:26.140Z,14.90
2023-04-08T13:55:55.133Z,13.33
2023-04-08T13:58:24.094Z,15.10
2023-04-08T14:00:54.049Z,14.10
2023-04-08T14:03:20.840Z,15.00
2023-04-08T14:05:47.627Z,13.87
2023-04-08T14:08:14.223Z,14.10
2023-04-08T14:10:42.257Z,14.27
2023-04-08T14:13:09.338Z,14.17
2023-04-08T14:15:36.076Z,14.50
2023-04-08T14:18:02.831Z,13.80
2023-04-08T14:20:29.900Z,15.37
2023-04-08T14:22:56.789Z,13.50
2023-04-08T14:25:24.222Z,14.87
2023-04-08T14:27:58.512Z,14.00
2023-04-08T14:30:26.957Z,15.40
2023-04-08T14:32:54.004Z,14.83
2023-04-08T14:35:20.767Z,15.50
2023-04-08T14:37:47.611Z,14.90
2023-04-08T14:40:14.145Z,14.80
2023-04-08T14:42:40.770Z,14.63
2023-04-08T14:45:07.936Z,17.57
2023-04-08T14:47:34.474Z,15.50
2023-04-08T14:50:01.053Z,17.93
2023-04-08T14:52:27.728Z,15.30
2023-04-08T14:54:54.248Z,15.57
2023-04-08T14:57:20.912Z,15.80
2023-04-08T14:59:48.077Z,16.47
2023-04-08T15:02:14.752Z,15.33
2023-04-08T15:04:41.516Z,14.77
2023-04-08T15:07:08.165Z,15.17
2023-04-08T15:09:34.649Z,17.00
2023-04-08T15:12:01.757Z,15.97
2023-04-08T15:14:28.251Z,16.90
2023-04-08T15:16:54.735Z,16.30
2023-04-08T15:19:21.278Z,15.97
2023-04-08T15:21:48.262Z,15.30
2023-04-08T15:24:14.894Z,16.63
2023-04-08T15:26:41.744Z,14.87
2023-04-08T15:29:08.293Z,16.97
2023-04-08T15:31:35.270Z,17.43
2023-04-08T15:34:02.850Z,17.10
2023-04-08T15:36:30.427Z,17.10
2023-04-08T15:38:57.097Z,17.53
2023-04-08T15:41:23.642Z,16.77
2023-04-08T15:43:50.216Z,16.87
2023-04-08T15:46:20.854Z,17.20
2023-04-08T15:48:48.078Z,17.10
2023-04-08T15:51:14.620Z,18.47
2023-04-08T15:53:41.683Z,18.13
2023-04-08T15:56:18.105Z,19.00
2023-04-08T15:58:45.989Z,17.57
2023-04-08T16:01:13.487Z,16.87
2023-04-08T16:03:40.082Z,18.80
2023-04-08T16:06:07.694Z,18.33
2023-04-08T16:08:34.796Z,18.67
2023-04-08T16:11:04.424Z,18.20
2023-04-08T16:13:31.346Z,19.13
2023-04-08T16:16:01.957Z,20.60
2023-04-08T16:18:29.399Z,21.23
2023-04-08T16:20:56.822Z,18.13
2023-04-08T16:23:23.792Z,20.13
2023-04-08T16:25:50.333Z,20.20
2023-04-08T16:28:18.069Z,19.50
2023-04-08T16:30:44.641Z,19.57
2023-04-08T16:33:13.835Z,20.23
2023-04-08T16:35:40.435Z,22.40
2023-04-08T16:38:07.133Z,21.93
2023-04-08T16:40:34.934Z,23.13
2023-04-08T16:43:02.355Z,21.00
2023-04-08T16:45:29.991Z,22.90
2023-04-08T16:47:57.231Z,22.20
2023-04-08T16:50:24.197Z,21.33
2023-04-08T16:52:50.823Z,21.87
2023-04-08T16:55:17.810Z,19.43
2023-04-08T16:57:44.704Z,21.53
2023-04-08T17:00:11.739Z,22.63
2023-04-08T17:02:38.520Z,21.47
2023-04-08T17:05:05.476Z,21.83
2023-04-08T17:07:35.227Z,20.47
2023-04-08T17:10:01.838Z,21.10
2023-04-08T17:12:28.760Z,20.40
2023-04-08T17:14:55.232Z,20.90
2023-04-08T17:17:21.836Z,20.10
2023-04-08T17:19:48.452Z,23.33
2023-04-08T17:22:14.934Z,22.00
2023-04-08T17:24:41.881Z,22.00
2023-04-08T17:27:08.528Z,25.70
2023-04-08T17:29:35.051Z,25.77
2023-04-08T17:32:01.645Z,22.33
2023-04-08T17:34:29.171Z,22.57
2023-04-08T17:36:56.781Z,21.10
2023-04-08T17:39:23.410Z,22.23
2023-04-08T17:41:50.385Z,19.93
2023-04-08T17:44:17.200Z,20.33
2023-04-08T17:46:43.760Z,18.83
2023-04-08T17:49:12.780Z,17.60
2023-04-08T17:51:39.365Z,17.60
2023-04-08T17:54:05.918Z,17.20
2023-04-08T17:56:33.376Z,17.90
2023-04-08T17:59:00.443Z,16.93
2023-04-08T18:01:27.182Z,16.70
2023-04-08T18:03:54.367Z,17.03
2023-04-08T18:06:21.252Z,16.27
2023-04-08T18:08:47.863Z,18.40
2023-04-08T18:11:14.474Z,17.60
2023-04-08T18:13:41.079Z,19.87
2023-04-08T18:16:15.616Z,21.00
2023-04-08T18:18:42.222Z,26.67
2023-04-08T18:21:08.820Z,25.27
2023-04-08T18:23:35.307Z,25.17
2023-04-08T18:26:01.867Z,22.60
2023-04-08T18:28:28.439Z,22.77
2023-04-08T18:30:55.301Z,21.57
2023-04-08T18:33:21.953Z,22.23
2023-04-08T18:35:48.514Z,21.10
2023-04-08T18:38:15.108Z,21.53
2023-04-08T18:40:42.114Z,22.40
2023-04-08T18:43:09.558Z,21.60
2023-04-08T18:45:36.616Z,22.20
2023-04-08T18:48:03.269Z,20.60
2023-04-08T18:50:29.775Z,20.23
2023-04-08T18:52:56.613Z,21.73
2023-04-08T18:55:23.189Z,23.20
2023-04-08T18:57:50.740Z,23.47
2023-04-08T19:00:17.320Z,22.60
2023-04-08T19:02:44.032Z,22.60
2023-04-08T19:05:10.745Z,24.47
2023-04-08T19:07:37.185Z,24.67
2023-04-08T19:10:03.935Z,21.80
2023-04-08T19:12:31.502Z,21.40
2023-04-08T19:14:59.384Z,20.67
2023-04-08T19:17:26.206Z,25.50
2023-04-08T19:19:52.690Z,29.20
2023-04-08T19:22:19.312Z,27.07
2023-04-08T19:24:45.932Z,22.80
2023-04-08T19:27:14.424Z,21.30
2023-04-08T19:29:40.959Z,22.20
2023-04-08T19:32:07.827Z,20.30
2023-04-08T19:34:38.491Z,20.70
2023-04-08T19:37:06.553Z,19.80
2023-04-08T19:39:33.422Z,20.30
2023-04-08T19:41:59.966Z,19.77
2023-04-08T19:44:27.165Z,19.70
2023-04-08T19:46:54.565Z,19.40
2023-04-08T19:49:21.810Z,19.00
2023-04-08T19:51:48.605Z,18.70
2023-04-08T19:54:15.141Z,19.57
2023-04-08T19:56:41.787Z,18.83
2023-04-08T19:59:08.292Z,19.90
2023-04-08T20:01:35.989Z,20.43
2023-04-08T20:04:02.735Z,19.63
2023-04-08T20:06:29.642Z,19.33
2023-04-08T20:08:56.239Z,21.13
2023-04-08T20:11:23.075Z,21.07
2023-04-08T20:13:51.412Z,20.27
2023-04-08T20:16:18.602Z,23.37
2023-04-08T20:18:47.856Z,24.37
2023-04-08T20:21:14.728Z,25.37
2023-04-08T20:23:44.298Z,24.10
2023-04-08T20:26:12.626Z,24.30
2023-04-08T20:28:39.743Z,23.93
2023-04-08T20:31:07.403Z,24.07
2023-04-08T20:33:33.998Z,22.83
2023-04-08T20:36:01.079Z,23.80
2023-04-08T20:38:28.188Z,26.97
2023-04-08T20:40:54.745Z,25.97
2023-04-08T20:43:21.245Z,24.57
2023-04-08T20:45:48.103Z,24.07
2023-04-08T20:48:14.556Z,20.93
2023-04-08T20:50:41.456Z,21.27
2023-04-08T20:53:08.432Z,21.87
2023-04-08T20:55:35.063Z,22.00
2023-04-08T20:58:05.606Z,20.00
2023-04-08T21:00:32.225Z,21.47
2023-04-08T21:02:59.606Z,22.90
2023-04-08T21:05:26.556Z,22.80
2023-04-08T21:07:53.193Z,20.40
2023-04-08T21:10:19.772Z,20.13
2023-04-08T21:12:46.285Z,20.77
2023-04-08T21:15:12.826Z,21.77
2023-04-08T21:17:39.359Z,21.27
2023-04-08T21:20:06.591Z,22.07
2023-04-08T21:22:33.056Z,21.00
2023-04-08T21:24:59.588Z,22.97
2023-04-08T21:27:26.082Z,23.20
2023-04-08T21:29:52.782Z,22.50
2023-04-08T21:32:19.589Z,25.80
2023-04-08T21:34:48.887Z,22.80
2023-04-08T21:37:15.457Z,22.47
2023-04-08T21:39:41.983Z,21.00
2023-04-08T21:42:08.494Z,22.23
2023-04-08T21:44:35.024Z,22.97
2023-04-08T21:47:02.184Z,23.83
2023-04-08T21:49:29.806Z,27.97
2023-04-08T21:51:56.349Z,24.97
2023-04-08T21:54:23.295Z,23.70
2023-04-08T21:56:49.848Z,22.07
2023-04-08T21:59:16.602Z,23.53
2023-04-08T22:01:43.341Z,28.03
2023-04-08T22:04:11.011Z,24.27
2023-04-08T22:06:37.633Z,23.63
2023-04-08T22:09:04.489Z,25.90
2023-04-08T22:11:31.199Z,23.90
2023-04-08T22:13:57.967Z,24.53
2023-04-08T22:16:24.570Z,23.73
2023-04-08T22:18:51.796Z,25.50
2023-04-08T22:21:18.575Z,24.90
2023-04-08T22:23:46.053Z,24.70
2023-04-08T22:26:13.519Z,26.70
2023-04-08T22:28:41.779Z,25.97
2023-04-08T22:31:12.289Z,31.23
2023-04-08T22:33:39.706Z,37.50
2023-04-08T22:36:06.606Z,46.20
2023-04-08T22:38:33.276Z,43.30
2023-04-08T22:40:59.881Z,37.80
2023-04-08T22:43:27.117Z,30.70
2023-04-08T22:45:53.633Z,29.10
2023-04-08T22:48:20.301Z,28.17
2023-04-08T22:50:46.981Z,26.40
2023-04-08T22:53:13.585Z,27.43
2023-04-08T22:55:40.228Z,26.20
2023-04-08T22:58:06.797Z,27.73
2023-04-08T23:00:33.341Z,26.23
2023-04-08T23:03:04.115Z,25.10
2023-04-08T23:05:31.183Z,24.00
2023-04-08T23:07:57.796Z,25.47
2023-04-08T23:10:24.304Z,28.70
2023-04-08T23:12:50.995Z,27.30
2023-04-08T23:15:17.931Z,27.27
2023-04-08T23:17:44.469Z,28.13
2023-04-08T23:20:11.525Z,27.80
2023-04-08T23:22:38.167Z,27.67
2023-04-08T23:25:05.242Z,26.73
2023-04-08T23:27:31.801Z,25.00
2023-04-08T23:29:58.382Z,26.63
2023-04-08T23:32:24.961Z,24.60
2023-04-08T23:34:51.487Z,24.50
2023-04-08T23:37:18.119Z,25.30
2023-04-08T23:39:44.620Z,26.97
2023-04-08T23:42:11.208Z,25.63
2023-04-08T23:44:37.715Z,25.43
2023-04-08T23:47:04.267Z,28.17
2023-04-08T23:49:30.916Z,26.87
2023-04-08T23:51:57.544Z,27.47
2023-04-08T23:54:24.223Z,29.27
2023-04-08T23:56:50.735Z,28.33
2023-04-08T23:59:17.402Z,26.87
